createdAt,value
2023-01-31T00:01:28.166Z,33.13
2023-01-31T00:03:56.719Z,33.20
2023-01-31T00:06:37.349Z,26.35
2023-01-31T00:09:06.157Z,31.92
2023-01-31T00:11:33.434Z,30.23
2023-01-31T00:14:02.188Z,31.00
2023-01-31T00:16:29.235Z,35.78
2023-01-31T00:18:56.296Z,37.08
2023-01-31T00:21:28.425Z,24.38
2023-01-31T00:23:56.509Z,26.15
2023-01-31T00:26:25.751Z,24.98
2023-01-31T00:28:54.523Z,36.22
2023-01-31T00:31:23.024Z,35.58
2023-01-31T00:33:51.484Z,24.95
2023-01-31T00:36:24.270Z,30.70
2023-01-31T00:38:56.072Z,29.25
2023-01-31T00:41:24.654Z,33.65
2023-01-31T00:43:51.816Z,30.95
2023-01-31T00:46:22.290Z,34.42
2023-01-31T00:48:49.675Z,33.88
2023-01-31T00:51:17.468Z,33.33
2023-01-31T00:53:44.338Z,40.25
2023-01-31T00:56:13.985Z,31.00
2023-01-31T00:58:41.187Z,27.60
2023-01-31T01:01:21.264Z,22.80
2023-01-31T01:03:48.748Z,29.88
2023-01-31T01:06:16.010Z,32.10
2023-01-31T01:08:44.004Z,31.35
2023-01-31T01:11:16.791Z,32.78
2023-01-31T01:13:44.632Z,34.17
2023-01-31T01:16:14.211Z,25.50
2023-01-31T01:18:41.799Z,28.95
2023-01-31T01:21:14.689Z,25.73
2023-01-31T01:26:38.022Z,29.13
2023-01-31T01:29:05.098Z,18.42
2023-01-31T01:31:32.571Z,33.75
2023-01-31T01:34:02.550Z,32.17
2023-01-31T01:36:31.538Z,26.38
2023-01-31T01:38:58.468Z,34.75
2023-01-31T01:41:25.670Z,24.23
2023-01-31T01:43:56.875Z,35.67
2023-01-31T01:46:26.972Z,27.08
2023-01-31T01:49:02.838Z,27.38
2023-01-31T01:51:32.704Z,27.30
2023-01-31T01:54:03.670Z,25.17
2023-01-31T01:56:37.679Z,23.25
2023-01-31T01:59:37.179Z,27.10
2023-01-31T02:02:04.777Z,22.85
2023-01-31T02:04:36.652Z,23.63
2023-01-31T02:07:03.814Z,27.73
2023-01-31T02:09:51.841Z,26.75
2023-01-31T02:12:18.544Z,24.60
2023-01-31T02:14:47.415Z,23.88
2023-01-31T02:17:17.063Z,32.22
2023-01-31T02:20:03.654Z,27.05
2023-01-31T02:22:39.830Z,24.73
2023-01-31T02:25:28.119Z,24.80
2023-01-31T02:28:06.959Z,24.02
2023-01-31T02:30:45.819Z,26.73
2023-01-31T02:33:21.571Z,22.48
2023-01-31T02:36:25.679Z,23.30
2023-01-31T02:39:10.584Z,19.65
2023-01-31T02:41:47.311Z,29.08
2023-01-31T02:44:54.346Z,24.13
2023-01-31T02:47:31.664Z,23.50
2023-01-31T02:50:11.351Z,26.25
2023-01-31T02:52:50.025Z,24.05
2023-01-31T02:55:38.063Z,21.92
2023-01-31T02:58:08.230Z,21.67
2023-01-31T03:00:39.062Z,24.23
2023-01-31T03:03:13.099Z,31.08
2023-01-31T03:05:42.697Z,18.98
2023-01-31T03:08:16.379Z,25.48
2023-01-31T03:11:02.304Z,18.63
2023-01-31T03:13:49.689Z,24.80
2023-01-31T03:16:46.921Z,31.33
2023-01-31T03:19:33.029Z,18.35
2023-01-31T03:22:12.573Z,18.58
2023-01-31T03:24:40.444Z,24.95
2023-01-31T03:27:07.499Z,18.35
2023-01-31T03:29:38.633Z,28.13
2023-01-31T03:32:14.924Z,27.77
2023-01-31T03:34:42.181Z,31.58
2023-01-31T03:37:40.789Z,21.00
2023-01-31T03:40:25.890Z,17.45
2023-01-31T03:43:01.341Z,31.17
2023-01-31T03:45:40.338Z,18.45
2023-01-31T03:48:14.372Z,24.13
2023-01-31T03:50:46.934Z,18.73
2023-01-31T03:53:17.843Z,13.43
2023-01-31T03:55:53.237Z,17.23
2023-01-31T03:58:23.982Z,30.10
2023-01-31T04:00:52.484Z,22.17
2023-01-31T04:03:34.936Z,30.35
2023-01-31T04:06:02.035Z,19.10
2023-01-31T04:08:28.941Z,27.38
2023-01-31T04:10:57.640Z,20.08
2023-01-31T04:13:24.473Z,22.33
2023-01-31T04:15:51.246Z,21.88
2023-01-31T04:18:18.076Z,23.30
2023-01-31T04:20:44.853Z,22.70
2023-01-31T04:23:11.610Z,24.02
2023-01-31T04:25:38.413Z,25.20
2023-01-31T04:28:05.293Z,21.73
2023-01-31T04:30:32.133Z,24.10
2023-01-31T04:32:58.883Z,25.25
2023-01-31T04:35:25.687Z,21.88
2023-01-31T04:37:52.492Z,22.35
2023-01-31T04:40:19.330Z,25.15
2023-01-31T04:42:46.753Z,18.90
2023-01-31T04:45:13.573Z,27.83
2023-01-31T04:47:40.355Z,21.30
2023-01-31T04:50:07.669Z,32.70
2023-01-31T04:52:34.718Z,25.50
2023-01-31T04:55:01.534Z,28.48
2023-01-31T04:57:31.718Z,30.02
2023-01-31T04:59:58.497Z,22.55
2023-01-31T05:02:25.320Z,32.63
2023-01-31T05:04:52.131Z,36.00
2023-01-31T05:07:18.915Z,33.88
2023-01-31T05:09:46.363Z,28.08
2023-01-31T05:12:13.199Z,23.23
2023-01-31T05:14:55.348Z,34.55
2023-01-31T05:17:26.540Z,31.85
2023-01-31T05:19:53.497Z,39.05
2023-01-31T05:22:22.691Z,24.48
2023-01-31T05:24:50.324Z,27.77
2023-01-31T05:27:17.722Z,35.28
2023-01-31T05:29:45.742Z,22.05
2023-01-31T05:32:13.233Z,26.45
2023-01-31T05:34:40.265Z,28.40
2023-01-31T05:37:07.356Z,32.85
2023-01-31T05:39:34.656Z,29.92
2023-01-31T05:42:02.029Z,27.55
2023-01-31T05:44:28.924Z,25.58
2023-01-31T05:46:55.776Z,30.02
2023-01-31T05:49:22.609Z,36.00
2023-01-31T05:51:49.457Z,38.78
2023-01-31T05:54:17.410Z,37.63
2023-01-31T05:56:44.358Z,25.48
2023-01-31T05:59:11.345Z,31.05
2023-01-31T06:01:38.184Z,28.58
2023-01-31T06:04:05.086Z,25.52
2023-01-31T06:06:32.123Z,25.77
2023-01-31T06:08:58.965Z,25.77
2023-01-31T06:11:25.817Z,32.33
2023-01-31T06:13:52.783Z,30.63
2023-01-31T06:16:19.693Z,32.25
2023-01-31T06:18:46.537Z,22.48
2023-01-31T06:21:13.521Z,32.67
2023-01-31T06:23:40.474Z,22.60
2023-01-31T06:26:07.387Z,23.65
2023-01-31T06:28:34.323Z,27.80
2023-01-31T06:31:11.219Z,26.05
2023-01-31T06:33:46.776Z,25.77
2023-01-31T06:36:18.929Z,32.72
2023-01-31T06:38:50.950Z,28.83
2023-01-31T06:41:21.641Z,28.75
2023-01-31T06:43:49.266Z,31.88
2023-01-31T06:46:16.198Z,28.98
2023-01-31T06:48:43.882Z,31.00
2023-01-31T06:51:11.047Z,29.40
2023-01-31T06:53:37.906Z,28.63
2023-01-31T06:56:04.992Z,25.58
2023-01-31T06:58:33.777Z,31.60
2023-01-31T07:01:09.226Z,25.95
2023-01-31T07:03:36.648Z,20.60
2023-01-31T07:06:04.088Z,22.95
2023-01-31T07:08:34.558Z,20.95
2023-01-31T07:11:01.968Z,25.90
2023-01-31T07:13:29.106Z,21.35
2023-01-31T07:15:56.909Z,28.65
2023-01-31T07:18:24.071Z,31.10
2023-01-31T07:20:51.423Z,25.35
2023-01-31T07:23:18.248Z,27.88
2023-01-31T07:25:44.969Z,25.52
2023-01-31T07:28:12.298Z,23.05
2023-01-31T07:30:40.189Z,28.08
2023-01-31T07:33:07.165Z,23.35
2023-01-31T07:35:33.964Z,25.30
2023-01-31T07:38:00.798Z,23.50
2023-01-31T07:40:27.678Z,21.80
2023-01-31T07:43:00.639Z,22.10
2023-01-31T07:45:27.715Z,23.70
2023-01-31T07:47:58.398Z,28.38
2023-01-31T07:50:27.230Z,26.50
2023-01-31T07:52:54.240Z,29.35
2023-01-31T07:55:21.714Z,26.52
2023-01-31T07:57:48.708Z,21.48
2023-01-31T08:00:34.138Z,23.88
2023-01-31T08:03:19.386Z,22.58
2023-01-31T08:05:47.704Z,19.52
2023-01-31T08:08:14.776Z,28.98
2023-01-31T08:10:41.733Z,24.10
2023-01-31T08:13:11.097Z,25.75
2023-01-31T08:15:37.925Z,22.88
2023-01-31T08:18:06.449Z,32.65
2023-01-31T08:20:34.230Z,28.55
2023-01-31T08:23:01.241Z,19.70
2023-01-31T08:25:32.025Z,30.00
2023-01-31T08:27:59.960Z,24.25
2023-01-31T08:30:27.516Z,31.98
2023-01-31T08:32:54.819Z,23.92
2023-01-31T08:35:22.445Z,20.65
2023-01-31T08:37:49.340Z,23.42
2023-01-31T08:40:16.194Z,21.30
2023-01-31T08:42:43.001Z,28.02
2023-01-31T08:45:10.351Z,23.40
2023-01-31T08:47:38.903Z,18.77
2023-01-31T08:50:15.874Z,18.90
2023-01-31T08:52:56.689Z,18.17
2023-01-31T08:55:24.647Z,20.80
2023-01-31T08:57:59.395Z,19.75
2023-01-31T09:00:27.219Z,19.05
2023-01-31T09:02:59.155Z,17.85
2023-01-31T09:05:27.938Z,18.08
2023-01-31T09:07:55.239Z,18.35
2023-01-31T09:10:22.854Z,24.90
2023-01-31T09:12:49.673Z,20.52
2023-01-31T09:15:17.405Z,22.30
2023-01-31T09:17:44.455Z,19.75
2023-01-31T09:20:11.669Z,20.90
2023-01-31T09:22:38.649Z,15.00
2023-01-31T09:25:05.954Z,22.80
2023-01-31T09:27:33.339Z,16.20
2023-01-31T09:30:00.180Z,23.63
2023-01-31T09:32:27.039Z,17.08
2023-01-31T09:34:53.797Z,21.17
2023-01-31T09:37:20.613Z,21.17
2023-01-31T09:39:47.399Z,19.38
2023-01-31T09:42:21.711Z,18.45
2023-01-31T09:45:03.818Z,22.27
2023-01-31T09:47:38.087Z,23.63
2023-01-31T09:50:16.328Z,21.40
2023-01-31T09:52:43.189Z,21.30
2023-01-31T09:55:35.384Z,23.73
2023-01-31T09:58:12.426Z,26.05
2023-01-31T10:00:58.102Z,18.83
2023-01-31T10:03:45.405Z,27.45
2023-01-31T10:06:24.246Z,22.35
2023-01-31T10:09:20.638Z,16.05
2023-01-31T10:11:54.727Z,29.50
2023-01-31T10:14:36.918Z,22.30
2023-01-31T10:17:28.382Z,18.05
2023-01-31T10:20:07.392Z,25.45
2023-01-31T10:23:02.876Z,20.77
2023-01-31T10:25:38.877Z,24.23
2023-01-31T10:28:33.577Z,19.50
2023-01-31T10:31:10.757Z,20.30
2023-01-31T10:33:56.758Z,24.95
2023-01-31T10:36:33.435Z,19.10
2023-01-31T10:39:21.509Z,18.80
2023-01-31T10:42:13.240Z,23.73
2023-01-31T10:44:53.702Z,23.65
2023-01-31T10:47:24.501Z,16.95
2023-01-31T10:49:51.749Z,18.80
2023-01-31T10:52:30.290Z,28.23
2023-01-31T10:55:15.915Z,18.90
2023-01-31T10:57:43.121Z,27.92
2023-01-31T11:00:22.631Z,19.63
2023-01-31T11:02:49.752Z,20.70
2023-01-31T11:05:20.112Z,20.30
2023-01-31T11:07:47.628Z,18.98
2023-01-31T11:10:32.140Z,20.70
2023-01-31T11:13:09.663Z,19.35
2023-01-31T11:15:39.586Z,17.67
2023-01-31T11:18:07.976Z,13.82
2023-01-31T11:20:44.350Z,21.67
2023-01-31T11:23:21.529Z,23.40
2023-01-31T11:25:52.841Z,18.45
2023-01-31T11:28:34.667Z,22.20
2023-01-31T11:31:02.236Z,23.25
2023-01-31T11:33:45.327Z,28.92
2023-01-31T11:36:15.350Z,10.43
2023-01-31T11:38:42.718Z,18.48
2023-01-31T11:41:37.515Z,21.40
2023-01-31T11:44:14.873Z,20.35
2023-01-31T11:46:47.407Z,18.42
2023-01-31T11:49:21.907Z,17.48
2023-01-31T11:51:50.254Z,16.85
2023-01-31T11:54:25.553Z,16.35
2023-01-31T11:56:54.754Z,18.17
2023-01-31T11:59:27.648Z,21.00
2023-01-31T12:01:57.654Z,23.87
2023-01-31T12:04:31.533Z,21.48
2023-01-31T12:07:05.253Z,13.85
2023-01-31T12:09:42.939Z,15.75
2023-01-31T12:12:33.904Z,16.20
2023-01-31T12:15:03.337Z,21.67
2023-01-31T12:17:35.547Z,19.27
2023-01-31T12:20:21.148Z,16.08
2023-01-31T12:23:04.970Z,21.30
2023-01-31T12:25:50.472Z,12.73
2023-01-31T12:28:25.675Z,15.30
2023-01-31T12:30:52.509Z,18.38
2023-01-31T12:33:31.197Z,11.98
2023-01-31T12:36:03.745Z,17.92
2023-01-31T12:38:44.622Z,19.42
2023-01-31T12:41:33.892Z,19.88
2023-01-31T12:44:19.223Z,15.95
2023-01-31T12:47:09.969Z,13.70
2023-01-31T12:49:58.290Z,18.25
2023-01-31T12:53:09.001Z,16.10
2023-01-31T12:55:47.084Z,13.75
2023-01-31T12:58:32.845Z,13.52
2023-01-31T13:01:11.152Z,12.93
2023-01-31T13:03:53.218Z,11.20
2023-01-31T13:06:34.904Z,17.30
2023-01-31T13:09:19.867Z,15.07
2023-01-31T13:12:03.114Z,13.38
2023-01-31T13:17:03.811Z,17.35
2023-01-31T13:19:51.835Z,10.32
2023-01-31T13:22:44.074Z,8.45
2023-01-31T13:25:26.978Z,8.60
2023-01-31T13:28:05.893Z,6.10
2023-01-31T13:30:49.140Z,8.77
2023-01-31T13:33:41.143Z,10.27
2023-01-31T13:36:21.585Z,11.23
2023-01-31T13:38:49.603Z,9.70
2023-01-31T13:41:33.573Z,9.77
2023-01-31T13:44:02.168Z,5.65
2023-01-31T13:46:44.234Z,5.90
2023-01-31T13:49:32.416Z,8.35
2023-01-31T13:52:03.451Z,5.18
2023-01-31T13:54:37.433Z,5.63
2023-01-31T13:57:05.350Z,6.20
2023-01-31T13:59:35.335Z,7.38
2023-01-31T14:02:05.861Z,5.50
2023-01-31T14:04:39.955Z,3.28
2023-01-31T14:07:07.180Z,4.20
2023-01-31T14:09:42.411Z,4.50
2023-01-31T14:12:17.821Z,5.43
2023-01-31T14:14:55.728Z,5.13
2023-01-31T14:17:28.597Z,4.63
2023-01-31T14:19:55.430Z,7.43
2023-01-31T14:22:27.834Z,5.85
2023-01-31T14:24:59.979Z,5.00
2023-01-31T14:27:28.729Z,4.82
2023-01-31T14:30:04.826Z,4.28
2023-01-31T14:32:31.630Z,5.95
2023-01-31T14:35:04.170Z,6.03
2023-01-31T14:37:36.861Z,12.07
2023-01-31T14:40:03.874Z,7.38
2023-01-31T14:42:49.425Z,7.80
2023-01-31T14:45:29.897Z,11.80
2023-01-31T14:48:28.870Z,9.80
2023-01-31T14:50:58.656Z,11.77
2023-01-31T14:53:54.545Z,10.10
2023-01-31T14:56:27.732Z,14.40
2023-01-31T14:58:55.051Z,10.82
2023-01-31T15:01:31.329Z,10.93
2023-01-31T15:03:59.129Z,8.45
2023-01-31T15:06:33.666Z,12.98
2023-01-31T15:09:35.188Z,12.73
2023-01-31T15:12:02.469Z,8.52
2023-01-31T15:14:35.499Z,7.78
2023-01-31T15:17:34.641Z,9.15
2023-01-31T15:20:18.080Z,7.15
2023-01-31T15:22:46.660Z,5.10
2023-01-31T15:25:42.916Z,5.35
2023-01-31T15:28:15.270Z,5.10
2023-01-31T15:30:42.699Z,4.95
2023-01-31T15:33:22.374Z,3.28
2023-01-31T15:36:00.637Z,5.35
2023-01-31T15:38:34.692Z,3.08
2023-01-31T15:41:15.277Z,4.28
2023-01-31T15:43:42.156Z,3.25
2023-01-31T15:46:20.699Z,2.45
2023-01-31T15:48:48.175Z,3.55
2023-01-31T15:51:15.928Z,3.10
2023-01-31T15:53:43.996Z,6.00
2023-01-31T15:56:40.558Z,3.10
2023-01-31T15:59:18.372Z,3.63
2023-01-31T16:01:50.241Z,1.75
2023-01-31T16:04:17.125Z,1.83
2023-01-31T16:06:45.980Z,4.57
2023-01-31T16:09:25.878Z,1.52
2023-01-31T16:11:53.423Z,2.65
2023-01-31T16:14:22.872Z,2.92
2023-01-31T16:16:52.892Z,6.10
2023-01-31T16:19:27.444Z,3.88
2023-01-31T16:21:55.575Z,2.53
2023-01-31T16:24:23.394Z,3.13
2023-01-31T16:26:52.981Z,1.73
2023-01-31T16:29:22.629Z,2.47
2023-01-31T16:31:52.093Z,4.05
2023-01-31T16:34:36.171Z,1.98
2023-01-31T16:37:09.936Z,3.45
2023-01-31T16:39:47.391Z,2.78
2023-01-31T16:42:22.190Z,1.73
2023-01-31T16:44:51.023Z,2.60
2023-01-31T16:47:39.871Z,3.00
2023-01-31T16:50:32.887Z,2.63
2023-01-31T16:53:29.849Z,5.68
2023-01-31T16:56:14.963Z,5.13
2023-01-31T16:58:52.626Z,4.45
2023-01-31T17:01:30.996Z,2.65
2023-01-31T17:04:17.972Z,6.68
2023-01-31T17:06:49.658Z,4.00
2023-01-31T17:09:20.227Z,5.00
2023-01-31T17:11:47.449Z,2.65
2023-01-31T17:14:14.292Z,4.28
2023-01-31T17:16:41.099Z,3.80
2023-01-31T17:19:07.929Z,4.20
2023-01-31T17:21:42.379Z,2.67
2023-01-31T17:24:22.591Z,5.50
2023-01-31T17:26:51.024Z,6.15
2023-01-31T17:29:18.798Z,4.43
2023-01-31T17:31:45.638Z,3.92
2023-01-31T17:34:17.319Z,6.35
2023-01-31T17:36:45.478Z,8.45
2023-01-31T17:39:12.256Z,5.13
2023-01-31T17:41:41.372Z,3.42
2023-01-31T17:44:12.864Z,4.22
2023-01-31T17:46:39.845Z,4.85
2023-01-31T17:49:06.625Z,7.35
2023-01-31T17:51:33.496Z,5.68
2023-01-31T17:54:00.317Z,6.05
2023-01-31T17:56:27.363Z,6.53
2023-01-31T17:58:54.118Z,8.15
2023-01-31T18:01:21.013Z,7.20
2023-01-31T18:03:48.040Z,6.18
2023-01-31T18:06:14.887Z,8.10
2023-01-31T18:08:41.694Z,5.95
2023-01-31T18:11:12.165Z,6.63
2023-01-31T18:13:39.096Z,5.88
2023-01-31T18:16:11.726Z,10.27
2023-01-31T18:18:43.938Z,9.98
2023-01-31T18:21:12.641Z,9.70
2023-01-31T18:23:39.711Z,11.48
2023-01-31T18:26:07.621Z,10.77
2023-01-31T18:28:36.468Z,10.35
2023-01-31T18:31:14.043Z,12.02
2023-01-31T18:33:42.981Z,9.85
2023-01-31T18:36:15.142Z,11.98
2023-01-31T18:38:43.775Z,8.32
2023-01-31T18:41:14.382Z,10.60
2023-01-31T18:43:42.240Z,11.38
2023-01-31T18:46:12.900Z,11.60
2023-01-31T18:48:40.580Z,10.00
2023-01-31T18:51:09.927Z,9.93
2023-01-31T18:53:39.636Z,9.52
2023-01-31T18:56:09.714Z,10.80
2023-01-31T18:58:38.477Z,9.38
2023-01-31T19:01:10.563Z,11.95
2023-01-31T19:03:37.984Z,8.47
2023-01-31T19:06:10.076Z,10.85
2023-01-31T19:08:37.226Z,10.53
2023-01-31T19:11:15.434Z,11.07
2023-01-31T19:13:42.765Z,9.80
2023-01-31T19:16:15.308Z,12.20
2023-01-31T19:18:42.317Z,13.60
2023-01-31T19:21:20.533Z,14.63
2023-01-31T19:23:49.023Z,16.05
2023-01-31T19:26:17.358Z,17.15
2023-01-31T19:28:45.530Z,18.25
2023-01-31T19:31:20.936Z,19.30
2023-01-31T19:33:52.774Z,20.85
2023-01-31T19:36:25.657Z,25.60
2023-01-31T19:41:22.010Z,16.98
2023-01-31T19:43:50.591Z,20.27
2023-01-31T19:46:18.137Z,22.50
2023-01-31T19:48:45.014Z,16.13
2023-01-31T19:51:16.875Z,14.38
2023-01-31T19:53:45.364Z,21.75
2023-01-31T19:56:12.844Z,16.00
2023-01-31T19:58:39.845Z,22.25
2023-01-31T20:01:09.610Z,15.55
2023-01-31T20:03:37.076Z,11.82
2023-01-31T20:06:13.062Z,18.35
2023-01-31T20:08:40.531Z,18.23
2023-01-31T20:11:08.158Z,17.58
2023-01-31T20:13:35.977Z,16.80
2023-01-31T20:16:06.956Z,18.98
2023-01-31T20:18:35.304Z,19.92
2023-01-31T20:21:02.387Z,18.60
2023-01-31T20:23:29.439Z,18.65
2023-01-31T20:25:57.274Z,25.83
2023-01-31T20:28:25.392Z,23.52
2023-01-31T20:30:52.925Z,21.00
2023-01-31T20:33:20.240Z,26.05
2023-01-31T20:35:47.544Z,26.00
2023-01-31T20:38:17.206Z,18.35
2023-01-31T20:40:50.551Z,21.08
2023-01-31T20:43:35.807Z,23.92
2023-01-31T20:46:11.262Z,23.75
2023-01-31T20:48:39.366Z,21.92
2023-01-31T20:51:06.952Z,20.98
2023-01-31T20:53:34.772Z,23.85
2023-01-31T20:56:04.920Z,28.65
2023-01-31T20:58:34.127Z,21.73
2023-01-31T21:01:05.496Z,25.90
2023-01-31T21:03:33.297Z,24.42
2023-01-31T21:06:01.489Z,33.95
2023-01-31T21:08:29.299Z,33.58
2023-01-31T21:10:57.818Z,28.33
2023-01-31T21:13:28.704Z,28.90
2023-01-31T21:15:57.735Z,32.15
2023-01-31T21:18:30.278Z,26.88
2023-01-31T21:20:57.140Z,28.25
2023-01-31T21:23:24.561Z,26.45
2023-01-31T21:25:51.314Z,27.80
2023-01-31T21:28:18.271Z,23.48
2023-01-31T21:30:45.355Z,26.50
2023-01-31T21:33:12.213Z,27.63
2023-01-31T21:35:39.281Z,29.98
2023-01-31T21:38:06.084Z,33.97
2023-01-31T21:40:32.886Z,32.03
2023-01-31T21:42:59.713Z,28.75
2023-01-31T21:45:41.605Z,33.90
2023-01-31T21:48:29.321Z,26.40
2023-01-31T21:50:57.373Z,26.52
2023-01-31T21:53:24.813Z,29.27
2023-01-31T21:56:01.318Z,28.15
2023-01-31T21:58:28.150Z,31.55
2023-01-31T22:00:54.930Z,30.45
2023-01-31T22:03:21.711Z,31.98
2023-01-31T22:05:48.727Z,37.78
2023-01-31T22:08:15.573Z,27.10
2023-01-31T22:10:42.350Z,42.28
2023-01-31T22:13:09.128Z,35.30
2023-01-31T22:15:35.960Z,30.25
2023-01-31T22:18:02.765Z,23.85
2023-01-31T22:20:29.541Z,31.35
2023-01-31T22:22:56.336Z,30.60
2023-01-31T22:25:23.076Z,27.83
2023-01-31T22:27:51.952Z,23.02
2023-01-31T22:30:18.781Z,22.40
2023-01-31T22:32:45.608Z,30.40
2023-01-31T22:35:12.486Z,25.77
2023-01-31T22:37:39.308Z,28.50
2023-01-31T22:40:06.452Z,38.20
2023-01-31T22:42:33.295Z,29.55
2023-01-31T22:45:00.116Z,42.30
2023-01-31T22:47:26.908Z,34.83
2023-01-31T22:49:53.723Z,25.52
2023-01-31T22:52:20.605Z,34.35
2023-01-31T22:54:47.686Z,28.13
2023-01-31T22:57:15.824Z,35.13
2023-01-31T22:59:42.595Z,30.38
2023-01-31T23:02:09.450Z,30.33
2023-01-31T23:04:36.306Z,29.40
2023-01-31T23:07:03.154Z,31.80
2023-01-31T23:09:29.903Z,35.10
2023-01-31T23:11:56.684Z,32.80
2023-01-31T23:14:23.456Z,29.17
2023-01-31T23:17:08.868Z,30.58
2023-01-31T23:19:36.088Z,32.72
2023-01-31T23:22:03.459Z,32.40
2023-01-31T23:24:30.277Z,28.52
2023-01-31T23:26:57.755Z,30.50
2023-01-31T23:29:24.651Z,26.67
2023-01-31T23:31:51.508Z,36.67
2023-01-31T23:34:18.373Z,34.63
2023-01-31T23:36:45.147Z,32.85
2023-01-31T23:39:12.042Z,33.78
2023-01-31T23:41:38.988Z,30.48
2023-01-31T23:44:05.846Z,25.70
2023-01-31T23:46:32.731Z,27.95
2023-01-31T23:48:59.801Z,30.98
2023-01-31T23:51:28.598Z,28.05
2023-01-31T23:53:55.540Z,30.60
2023-01-31T23:56:22.530Z,28.63
2023-01-31T23:58:49.324Z,31.13
